sensor_id;sensor_type;location;lat;lon;timestamp;P1;durP1;ratioP1;P2;durP2;ratioP2
21901;SDS011;11115;46.038;14.612;2024-02-28T00:02:03;30.30;;;19.77;;
21901;SDS011;11115;46.038;14.612;2024-02-28T00:04:32;32.77;;;23.13;;
21901;SDS011;11115;46.038;14.612;2024-02-28T00:07:03;27.30;;;20.10;;
21901;SDS011;11115;46.038;14.612;2024-02-28T00:09:36;32.47;;;21.33;;
21901;SDS011;11115;46.038;14.612;2024-02-28T00:12:09;28.37;;;19.60;;
21901;SDS011;11115;46.038;14.612;2024-02-28T00:14:46;22.07;;;16.03;;
21901;SDS011;11115;46.038;14.612;2024-02-28T00:17:18;20.80;;;13.20;;
21901;SDS011;11115;46.038;14.612;2024-02-28T00:19:52;13.77;;;11.53;;
21901;SDS011;11115;46.038;14.612;2024-02-28T00:24:57;21.63;;;15.80;;
21901;SDS011;11115;46.038;14.612;2024-02-28T00:27:46;19.50;;;15.80;;
21901;SDS011;11115;46.038;14.612;2024-02-28T00:30:20;24.20;;;16.97;;
21901;SDS011;11115;46.038;14.612;2024-02-28T00:32:52;21.60;;;15.27;;
21901;SDS011;11115;46.038;14.612;2024-02-28T00:35:32;23.30;;;16.33;;
21901;SDS011;11115;46.038;14.612;2024-02-28T00:38:08;25.27;;;18.77;;
21901;SDS011;11115;46.038;14.612;2024-02-28T00:40:43;18.13;;;14.57;;
21901;SDS011;11115;46.038;14.612;2024-02-28T00:43:29;21.87;;;15.10;;
21901;SDS011;11115;46.038;14.612;2024-02-28T00:46:04;22.07;;;17.03;;
21901;SDS011;11115;46.038;14.612;2024-02-28T00:48:53;18.67;;;14.83;;
21901;SDS011;11115;46.038;14.612;2024-02-28T00:51:34;20.53;;;15.87;;
21901;SDS011;11115;46.038;14.612;2024-02-28T00:54:04;24.92;;;18.55;;
21901;SDS011;11115;46.038;14.612;2024-02-28T00:56:41;25.37;;;20.13;;
21901;SDS011;11115;46.038;14.612;2024-02-28T00:59:14;19.67;;;15.43;;
21901;SDS011;11115;46.038;14.612;2024-02-28T01:01:44;21.30;;;15.10;;
21901;SDS011;11115;46.038;14.612;2024-02-28T01:04:32;25.07;;;19.30;;
21901;SDS011;11115;46.038;14.612;2024-02-28T01:07:02;27.07;;;20.00;;
21901;SDS011;11115;46.038;14.612;2024-02-28T01:09:36;27.67;;;19.70;;
21901;SDS011;11115;46.038;14.612;2024-02-28T01:12:14;39.13;;;22.90;;
21901;SDS011;11115;46.038;14.612;2024-02-28T01:14:44;27.47;;;19.93;;
21901;SDS011;11115;46.038;14.612;2024-02-28T01:17:18;29.23;;;19.63;;
21901;SDS011;11115;46.038;14.612;2024-02-28T01:19:56;35.77;;;22.10;;
21901;SDS011;11115;46.038;14.612;2024-02-28T01:22:41;36.17;;;21.77;;
21901;SDS011;11115;46.038;14.612;2024-02-28T01:25:10;34.10;;;21.37;;
21901;SDS011;11115;46.038;14.612;2024-02-28T01:27:49;29.67;;;20.23;;
21901;SDS011;11115;46.038;14.612;2024-02-28T01:30:23;22.10;;;17.47;;
21901;SDS011;11115;46.038;14.612;2024-02-28T01:33:07;26.23;;;18.47;;
21901;SDS011;11115;46.038;14.612;2024-02-28T01:35:44;24.10;;;18.70;;
21901;SDS011;11115;46.038;14.612;2024-02-28T01:38:19;25.13;;;17.10;;
21901;SDS011;11115;46.038;14.612;2024-02-28T01:40:51;27.73;;;19.07;;
21901;SDS011;11115;46.038;14.612;2024-02-28T01:43:27;21.77;;;15.60;;
21901;SDS011;11115;46.038;14.612;2024-02-28T01:46:03;20.13;;;15.33;;
21901;SDS011;11115;46.038;14.612;2024-02-28T01:48:58;27.87;;;19.13;;
21901;SDS011;11115;46.038;14.612;2024-02-28T01:51:32;24.40;;;17.03;;
21901;SDS011;11115;46.038;14.612;2024-02-28T01:54:08;27.03;;;18.67;;
21901;SDS011;11115;46.038;14.612;2024-02-28T01:56:49;27.27;;;18.43;;
21901;SDS011;11115;46.038;14.612;2024-02-28T01:59:27;25.77;;;18.83;;
21901;SDS011;11115;46.038;14.612;2024-02-28T02:02:17;26.30;;;18.50;;
21901;SDS011;11115;46.038;14.612;2024-02-28T02:04:52;22.73;;;17.20;;
21901;SDS011;11115;46.038;14.612;2024-02-28T02:07:30;29.17;;;19.07;;
21901;SDS011;11115;46.038;14.612;2024-02-28T02:10:05;30.67;;;20.43;;
21901;SDS011;11115;46.038;14.612;2024-02-28T02:12:45;29.90;;;19.67;;
21901;SDS011;11115;46.038;14.612;2024-02-28T02:15:20;22.97;;;17.00;;
21901;SDS011;11115;46.038;14.612;2024-02-28T02:17:59;23.43;;;17.77;;
21901;SDS011;11115;46.038;14.612;2024-02-28T02:20:32;20.27;;;14.93;;
21901;SDS011;11115;46.038;14.612;2024-02-28T02:23:10;25.23;;;18.10;;
21901;SDS011;11115;46.038;14.612;2024-02-28T02:28:24;25.37;;;15.63;;
21901;SDS011;11115;46.038;14.612;2024-02-28T02:31:06;24.50;;;16.07;;
21901;SDS011;11115;46.038;14.612;2024-02-28T02:34:03;21.50;;;16.00;;
21901;SDS011;11115;46.038;14.612;2024-02-28T02:36:39;27.07;;;18.73;;
21901;SDS011;11115;46.038;14.612;2024-02-28T02:39:15;25.87;;;19.63;;
21901;SDS011;11115;46.038;14.612;2024-02-28T02:41:51;21.43;;;16.73;;
21901;SDS011;11115;46.038;14.612;2024-02-28T02:44:23;29.80;;;18.93;;
21901;SDS011;11115;46.038;14.612;2024-02-28T02:47:07;21.00;;;15.93;;
21901;SDS011;11115;46.038;14.612;2024-02-28T02:49:46;24.67;;;17.60;;
21901;SDS011;11115;46.038;14.612;2024-02-28T02:52:22;29.53;;;17.87;;
21901;SDS011;11115;46.038;14.612;2024-02-28T02:54:57;33.60;;;20.03;;
21901;SDS011;11115;46.038;14.612;2024-02-28T02:57:31;24.47;;;16.80;;
21901;SDS011;11115;46.038;14.612;2024-02-28T03:00:03;29.33;;;18.87;;
21901;SDS011;11115;46.038;14.612;2024-02-28T03:02:47;21.97;;;15.40;;
21901;SDS011;11115;46.038;14.612;2024-02-28T03:05:20;25.70;;;17.17;;
21901;SDS011;11115;46.038;14.612;2024-02-28T03:07:54;27.00;;;19.53;;
21901;SDS011;11115;46.038;14.612;2024-02-28T03:10:37;30.00;;;20.43;;
21901;SDS011;11115;46.038;14.612;2024-02-28T03:13:14;28.83;;;20.97;;
21901;SDS011;11115;46.038;14.612;2024-02-28T03:15:51;34.90;;;20.60;;
21901;SDS011;11115;46.038;14.612;2024-02-28T03:18:28;26.57;;;17.37;;
21901;SDS011;11115;46.038;14.612;2024-02-28T03:21:05;34.87;;;21.37;;
21901;SDS011;11115;46.038;14.612;2024-02-28T03:23:51;26.03;;;17.57;;
21901;SDS011;11115;46.038;14.612;2024-02-28T03:26:26;31.20;;;20.33;;
21901;SDS011;11115;46.038;14.612;2024-02-28T03:29:07;38.03;;;24.57;;
21901;SDS011;11115;46.038;14.612;2024-02-28T03:31:39;29.10;;;20.10;;
21901;SDS011;11115;46.038;14.612;2024-02-28T03:34:07;33.70;;;22.07;;
21901;SDS011;11115;46.038;14.612;2024-02-28T03:36:51;34.57;;;23.27;;
21901;SDS011;11115;46.038;14.612;2024-02-28T03:39:27;38.97;;;24.33;;
21901;SDS011;11115;46.038;14.612;2024-02-28T03:42:13;40.10;;;22.50;;
21901;SDS011;11115;46.038;14.612;2024-02-28T03:44:50;36.00;;;21.90;;
21901;SDS011;11115;46.038;14.612;2024-02-28T03:47:26;29.40;;;22.40;;
21901;SDS011;11115;46.038;14.612;2024-02-28T03:50:05;21.27;;;17.60;;
21901;SDS011;11115;46.038;14.612;2024-02-28T03:52:39;26.23;;;19.07;;
21901;SDS011;11115;46.038;14.612;2024-02-28T03:55:13;27.67;;;20.43;;
21901;SDS011;11115;46.038;14.612;2024-02-28T03:57:47;27.40;;;20.07;;
21901;SDS011;11115;46.038;14.612;2024-02-28T04:00:21;31.23;;;20.57;;
21901;SDS011;11115;46.038;14.612;2024-02-28T04:03:06;42.33;;;20.47;;
21901;SDS011;11115;46.038;14.612;2024-02-28T04:05:43;32.23;;;19.80;;
21901;SDS011;11115;46.038;14.612;2024-02-28T04:08:19;38.47;;;21.77;;
21901;SDS011;11115;46.038;14.612;2024-02-28T04:11:04;45.73;;;24.50;;
21901;SDS011;11115;46.038;14.612;2024-02-28T04:13:40;37.63;;;23.73;;
21901;SDS011;11115;46.038;14.612;2024-02-28T04:16:12;45.77;;;26.37;;
21901;SDS011;11115;46.038;14.612;2024-02-28T04:18:51;59.90;;;29.20;;
21901;SDS011;11115;46.038;14.612;2024-02-28T04:21:26;50.80;;;25.00;;
21901;SDS011;11115;46.038;14.612;2024-02-28T04:24:09;49.53;;;24.00;;
21901;SDS011;11115;46.038;14.612;2024-02-28T04:26:45;92.67;;;31.57;;
21901;SDS011;11115;46.038;14.612;2024-02-28T04:29:17;123.63;;;29.87;;
21901;SDS011;11115;46.038;14.612;2024-02-28T04:31:51;71.67;;;29.20;;
21901;SDS011;11115;46.038;14.612;2024-02-28T04:34:28;66.13;;;26.85;;
21901;SDS011;11115;46.038;14.612;2024-02-28T04:37:00;93.93;;;28.40;;
21901;SDS011;11115;46.038;14.612;2024-02-28T04:39:35;98.73;;;31.70;;
21901;SDS011;11115;46.038;14.612;2024-02-28T04:42:21;78.30;;;28.10;;
21901;SDS011;11115;46.038;14.612;2024-02-28T04:45:03;55.67;;;27.20;;
21901;SDS011;11115;46.038;14.612;2024-02-28T04:47:45;66.07;;;25.43;;
21901;SDS011;11115;46.038;14.612;2024-02-28T04:50:22;68.17;;;22.23;;
21901;SDS011;11115;46.038;14.612;2024-02-28T04:52:54;38.92;;;21.60;;
21901;SDS011;11115;46.038;14.612;2024-02-28T04:55:30;26.53;;;20.10;;
21901;SDS011;11115;46.038;14.612;2024-02-28T04:58:06;40.17;;;20.50;;
21901;SDS011;11115;46.038;14.612;2024-02-28T05:00:45;32.17;;;19.70;;
21901;SDS011;11115;46.038;14.612;2024-02-28T05:03:23;26.23;;;18.70;;
21901;SDS011;11115;46.038;14.612;2024-02-28T05:05:55;32.60;;;20.98;;
21901;SDS011;11115;46.038;14.612;2024-02-28T05:08:26;44.83;;;29.77;;
21901;SDS011;11115;46.038;14.612;2024-02-28T05:10:57;30.73;;;22.67;;
21901;SDS011;11115;46.038;14.612;2024-02-28T05:13:26;31.40;;;23.10;;
21901;SDS011;11115;46.038;14.612;2024-02-28T05:16:03;27.13;;;18.13;;
21901;SDS011;11115;46.038;14.612;2024-02-28T05:18:48;29.00;;;19.80;;
21901;SDS011;11115;46.038;14.612;2024-02-28T05:21:30;26.53;;;18.03;;
21901;SDS011;11115;46.038;14.612;2024-02-28T05:24:05;25.03;;;17.80;;
21901;SDS011;11115;46.038;14.612;2024-02-28T05:26:38;27.23;;;19.10;;
21901;SDS011;11115;46.038;14.612;2024-02-28T05:29:18;26.13;;;19.33;;
21901;SDS011;11115;46.038;14.612;2024-02-28T05:31:50;26.43;;;17.83;;
21901;SDS011;11115;46.038;14.612;2024-02-28T05:34:30;27.10;;;17.03;;
21901;SDS011;11115;46.038;14.612;2024-02-28T05:37:02;37.60;;;22.63;;
21901;SDS011;11115;46.038;14.612;2024-02-28T05:39:39;29.77;;;20.17;;
21901;SDS011;11115;46.038;14.612;2024-02-28T05:42:17;31.30;;;21.80;;
21901;SDS011;11115;46.038;14.612;2024-02-28T05:44:51;26.43;;;17.27;;
21901;SDS011;11115;46.038;14.612;2024-02-28T05:47:24;35.00;;;21.53;;
21901;SDS011;11115;46.038;14.612;2024-02-28T05:49:57;33.80;;;20.27;;
21901;SDS011;11115;46.038;14.612;2024-02-28T05:52:31;26.60;;;18.20;;
21901;SDS011;11115;46.038;14.612;2024-02-28T05:55:03;31.83;;;20.15;;
21901;SDS011;11115;46.038;14.612;2024-02-28T05:57:44;28.10;;;17.42;;
21901;SDS011;11115;46.038;14.612;2024-02-28T06:00:19;33.30;;;20.53;;
21901;SDS011;11115;46.038;14.612;2024-02-28T06:03:04;26.53;;;18.37;;
21901;SDS011;11115;46.038;14.612;2024-02-28T06:05:47;29.27;;;19.90;;
21901;SDS011;11115;46.038;14.612;2024-02-28T06:08:17;29.83;;;19.70;;
21901;SDS011;11115;46.038;14.612;2024-02-28T06:10:51;29.50;;;18.70;;
21901;SDS011;11115;46.038;14.612;2024-02-28T06:13:29;28.17;;;16.53;;
21901;SDS011;11115;46.038;14.612;2024-02-28T06:16:00;22.80;;;16.63;;
21901;SDS011;11115;46.038;14.612;2024-02-28T06:18:38;23.87;;;15.27;;
21901;SDS011;11115;46.038;14.612;2024-02-28T06:21:10;22.27;;;13.60;;
21901;SDS011;11115;46.038;14.612;2024-02-28T06:23:53;24.30;;;14.45;;
21901;SDS011;11115;46.038;14.612;2024-02-28T06:26:26;19.90;;;13.23;;
21901;SDS011;11115;46.038;14.612;2024-02-28T06:29:02;20.90;;;13.87;;
21901;SDS011;11115;46.038;14.612;2024-02-28T06:31:49;16.30;;;13.17;;
21901;SDS011;11115;46.038;14.612;2024-02-28T06:34:27;17.58;;;13.35;;
21901;SDS011;11115;46.038;14.612;2024-02-28T06:36:57;20.83;;;14.33;;
21901;SDS011;11115;46.038;14.612;2024-02-28T06:39:28;18.10;;;13.20;;
21901;SDS011;11115;46.038;14.612;2024-02-28T06:42:06;18.80;;;14.50;;
21901;SDS011;11115;46.038;14.612;2024-02-28T06:44:49;18.20;;;14.47;;
21901;SDS011;11115;46.038;14.612;2024-02-28T06:47:23;28.30;;;17.33;;
21901;SDS011;11115;46.038;14.612;2024-02-28T06:50:01;29.47;;;17.73;;
21901;SDS011;11115;46.038;14.612;2024-02-28T06:52:37;32.00;;;20.43;;
21901;SDS011;11115;46.038;14.612;2024-02-28T06:55:13;26.80;;;18.40;;
21901;SDS011;11115;46.038;14.612;2024-02-28T06:57:50;26.57;;;19.23;;
21901;SDS011;11115;46.038;14.612;2024-02-28T07:00:26;35.73;;;21.80;;
21901;SDS011;11115;46.038;14.612;2024-02-28T07:03:03;29.00;;;19.20;;
21901;SDS011;11115;46.038;14.612;2024-02-28T07:05:37;26.30;;;17.97;;
21901;SDS011;11115;46.038;14.612;2024-02-28T07:08:16;30.97;;;21.23;;
21901;SDS011;11115;46.038;14.612;2024-02-28T07:10:51;27.37;;;19.97;;
21901;SDS011;11115;46.038;14.612;2024-02-28T07:16:06;29.67;;;19.10;;
21901;SDS011;11115;46.038;14.612;2024-02-28T07:18:56;32.20;;;20.97;;
21901;SDS011;11115;46.038;14.612;2024-02-28T07:21:41;34.57;;;22.30;;
21901;SDS011;11115;46.038;14.612;2024-02-28T07:24:13;36.13;;;22.43;;
21901;SDS011;11115;46.038;14.612;2024-02-28T07:26:45;37.17;;;22.90;;
21901;SDS011;11115;46.038;14.612;2024-02-28T07:29:21;37.33;;;24.27;;
21901;SDS011;11115;46.038;14.612;2024-02-28T07:31:58;43.57;;;25.03;;
21901;SDS011;11115;46.038;14.612;2024-02-28T07:34:28;53.65;;;28.13;;
21901;SDS011;11115;46.038;14.612;2024-02-28T07:36:59;47.73;;;28.10;;
21901;SDS011;11115;46.038;14.612;2024-02-28T07:39:31;43.67;;;26.30;;
21901;SDS011;11115;46.038;14.612;2024-02-28T07:42:02;38.28;;;24.90;;
21901;SDS011;11115;46.038;14.612;2024-02-28T07:44:36;42.53;;;28.00;;
21901;SDS011;11115;46.038;14.612;2024-02-28T07:47:13;42.83;;;25.80;;
21901;SDS011;11115;46.038;14.612;2024-02-28T07:49:52;45.97;;;28.27;;
21901;SDS011;11115;46.038;14.612;2024-02-28T07:52:27;42.73;;;27.63;;
21901;SDS011;11115;46.038;14.612;2024-02-28T07:55:02;37.90;;;25.83;;
21901;SDS011;11115;46.038;14.612;2024-02-28T07:57:33;37.97;;;25.90;;
21901;SDS011;11115;46.038;14.612;2024-02-28T08:00:04;39.70;;;27.57;;
21901;SDS011;11115;46.038;14.612;2024-02-28T08:02:40;34.37;;;23.47;;
21901;SDS011;11115;46.038;14.612;2024-02-28T08:05:23;36.83;;;26.10;;
21901;SDS011;11115;46.038;14.612;2024-02-28T08:08:07;47.17;;;31.80;;
21901;SDS011;11115;46.038;14.612;2024-02-28T08:10:41;38.50;;;26.87;;
21901;SDS011;11115;46.038;14.612;2024-02-28T08:13:21;32.23;;;23.17;;
21901;SDS011;11115;46.038;14.612;2024-02-28T08:16:02;39.58;;;24.55;;
21901;SDS011;11115;46.038;14.612;2024-02-28T08:18:45;32.17;;;22.73;;
21901;SDS011;11115;46.038;14.612;2024-02-28T08:21:30;37.03;;;25.47;;
21901;SDS011;11115;46.038;14.612;2024-02-28T08:24:09;32.60;;;22.83;;
21901;SDS011;11115;46.038;14.612;2024-02-28T08:26:46;31.27;;;21.33;;
21901;SDS011;11115;46.038;14.612;2024-02-28T08:29:35;30.07;;;19.63;;
21901;SDS011;11115;46.038;14.612;2024-02-28T08:32:15;28.20;;;20.73;;
21901;SDS011;11115;46.038;14.612;2024-02-28T08:34:48;35.23;;;23.40;;
21901;SDS011;11115;46.038;14.612;2024-02-28T08:37:32;31.87;;;21.73;;
21901;SDS011;11115;46.038;14.612;2024-02-28T08:40:02;31.10;;;22.90;;
21901;SDS011;11115;46.038;14.612;2024-02-28T08:42:37;36.33;;;25.37;;
21901;SDS011;11115;46.038;14.612;2024-02-28T08:45:22;28.30;;;21.27;;
21901;SDS011;11115;46.038;14.612;2024-02-28T08:48:02;33.87;;;24.43;;
21901;SDS011;11115;46.038;14.612;2024-02-28T08:50:42;33.10;;;22.97;;
21901;SDS011;11115;46.038;14.612;2024-02-28T08:53:22;27.27;;;19.77;;
21901;SDS011;11115;46.038;14.612;2024-02-28T08:55:54;31.23;;;21.43;;
21901;SDS011;11115;46.038;14.612;2024-02-28T08:58:31;36.33;;;23.87;;
21901;SDS011;11115;46.038;14.612;2024-02-28T09:01:07;33.13;;;22.40;;
21901;SDS011;11115;46.038;14.612;2024-02-28T09:03:43;31.17;;;20.93;;
21901;SDS011;11115;46.038;14.612;2024-02-28T09:06:19;27.27;;;19.07;;
21901;SDS011;11115;46.038;14.612;2024-02-28T09:08:58;30.70;;;20.03;;
21901;SDS011;11115;46.038;14.612;2024-02-28T09:11:35;31.30;;;21.80;;
21901;SDS011;11115;46.038;14.612;2024-02-28T09:14:08;38.37;;;26.73;;
21901;SDS011;11115;46.038;14.612;2024-02-28T09:16:48;36.10;;;24.93;;
21901;SDS011;11115;46.038;14.612;2024-02-28T09:19:31;37.43;;;24.73;;
21901;SDS011;11115;46.038;14.612;2024-02-28T09:22:08;37.40;;;25.17;;
21901;SDS011;11115;46.038;14.612;2024-02-28T09:24:45;32.23;;;24.17;;
21901;SDS011;11115;46.038;14.612;2024-02-28T09:27:18;27.03;;;20.20;;
21901;SDS011;11115;46.038;14.612;2024-02-28T09:30:04;30.80;;;22.40;;
21901;SDS011;11115;46.038;14.612;2024-02-28T09:32:36;30.27;;;21.17;;
21901;SDS011;11115;46.038;14.612;2024-02-28T09:35:10;27.13;;;20.83;;
21901;SDS011;11115;46.038;14.612;2024-02-28T09:37:48;26.63;;;20.20;;
21901;SDS011;11115;46.038;14.612;2024-02-28T09:40:24;27.17;;;19.00;;
21901;SDS011;11115;46.038;14.612;2024-02-28T09:43:04;25.97;;;18.70;;
21901;SDS011;11115;46.038;14.612;2024-02-28T09:45:39;22.17;;;17.53;;
21901;SDS011;11115;46.038;14.612;2024-02-28T09:48:19;21.43;;;16.03;;
21901;SDS011;11115;46.038;14.612;2024-02-28T09:50:52;28.53;;;19.80;;
21901;SDS011;11115;46.038;14.612;2024-02-28T09:53:42;26.30;;;19.13;;
21901;SDS011;11115;46.038;14.612;2024-02-28T09:56:12;25.43;;;19.30;;
21901;SDS011;11115;46.038;14.612;2024-02-28T09:58:47;25.17;;;18.50;;
21901;SDS011;11115;46.038;14.612;2024-02-28T10:01:42;24.13;;;18.65;;
21901;SDS011;11115;46.038;14.612;2024-02-28T10:04:15;25.50;;;18.47;;
21901;SDS011;11115;46.038;14.612;2024-02-28T10:06:45;24.67;;;18.00;;
21901;SDS011;11115;46.038;14.612;2024-02-28T10:09:21;25.13;;;19.30;;
21901;SDS011;11115;46.038;14.612;2024-02-28T10:12:09;24.63;;;18.70;;
21901;SDS011;11115;46.038;14.612;2024-02-28T10:14:40;25.87;;;18.63;;
21901;SDS011;11115;46.038;14.612;2024-02-28T10:17:15;25.90;;;18.13;;
21901;SDS011;11115;46.038;14.612;2024-02-28T10:19:52;26.53;;;18.73;;
21901;SDS011;11115;46.038;14.612;2024-02-28T10:25:06;23.10;;;17.50;;
21901;SDS011;11115;46.038;14.612;2024-02-28T10:27:43;27.90;;;18.80;;
21901;SDS011;11115;46.038;14.612;2024-02-28T10:30:19;23.63;;;17.27;;
21901;SDS011;11115;46.038;14.612;2024-02-28T10:32:52;22.60;;;17.50;;
21901;SDS011;11115;46.038;14.612;2024-02-28T10:35:20;22.73;;;17.27;;
21901;SDS011;11115;46.038;14.612;2024-02-28T10:37:54;24.67;;;18.37;;
21901;SDS011;11115;46.038;14.612;2024-02-28T10:40:31;23.17;;;17.27;;
21901;SDS011;11115;46.038;14.612;2024-02-28T10:43:08;24.17;;;17.67;;
21901;SDS011;11115;46.038;14.612;2024-02-28T10:45:42;23.33;;;18.60;;
21901;SDS011;11115;46.038;14.612;2024-02-28T10:48:40;24.20;;;17.43;;
21901;SDS011;11115;46.038;14.612;2024-02-28T10:51:15;22.67;;;16.43;;
21901;SDS011;11115;46.038;14.612;2024-02-28T10:54:07;18.43;;;14.63;;
21901;SDS011;11115;46.038;14.612;2024-02-28T10:56:44;22.27;;;16.60;;
21901;SDS011;11115;46.038;14.612;2024-02-28T10:59:25;22.38;;;16.70;;
21901;SDS011;11115;46.038;14.612;2024-02-28T11:02:03;20.57;;;15.70;;
21901;SDS011;11115;46.038;14.612;2024-02-28T11:04:46;24.30;;;18.10;;
21901;SDS011;11115;46.038;14.612;2024-02-28T11:07:31;20.90;;;16.30;;
21901;SDS011;11115;46.038;14.612;2024-02-28T11:10:23;19.67;;;15.37;;
21901;SDS011;11115;46.038;14.612;2024-02-28T11:12:56;19.83;;;15.93;;
21901;SDS011;11115;46.038;14.612;2024-02-28T11:15:30;18.00;;;14.60;;
21901;SDS011;11115;46.038;14.612;2024-02-28T11:18:08;24.20;;;15.97;;
21901;SDS011;11115;46.038;14.612;2024-02-28T11:20:45;21.50;;;14.00;;
21901;SDS011;11115;46.038;14.612;2024-02-28T11:23:26;17.10;;;13.93;;
21901;SDS011;11115;46.038;14.612;2024-02-28T11:26:05;18.57;;;13.00;;
21901;SDS011;11115;46.038;14.612;2024-02-28T11:28:50;18.83;;;14.37;;
21901;SDS011;11115;46.038;14.612;2024-02-28T11:31:23;17.73;;;13.60;;
21901;SDS011;11115;46.038;14.612;2024-02-28T11:34:01;18.03;;;13.07;;
21901;SDS011;11115;46.038;14.612;2024-02-28T11:36:35;17.90;;;13.43;;
21901;SDS011;11115;46.038;14.612;2024-02-28T11:39:07;14.23;;;12.45;;
21901;SDS011;11115;46.038;14.612;2024-02-28T11:41:42;22.70;;;14.37;;
21901;SDS011;11115;46.038;14.612;2024-02-28T11:44:18;25.30;;;15.40;;
21901;SDS011;11115;46.038;14.612;2024-02-28T11:46:50;20.30;;;16.23;;
21901;SDS011;11115;46.038;14.612;2024-02-28T11:49:22;21.47;;;15.80;;
21901;SDS011;11115;46.038;14.612;2024-02-28T11:51:59;26.23;;;14.47;;
21901;SDS011;11115;46.038;14.612;2024-02-28T11:54:36;16.70;;;13.93;;
21901;SDS011;11115;46.038;14.612;2024-02-28T11:57:10;21.30;;;13.83;;
21901;SDS011;11115;46.038;14.612;2024-02-28T11:59:49;27.70;;;16.00;;
21901;SDS011;11115;46.038;14.612;2024-02-28T12:02:33;27.03;;;14.93;;
21901;SDS011;11115;46.038;14.612;2024-02-28T12:05:10;18.50;;;14.37;;
21901;SDS011;11115;46.038;14.612;2024-02-28T12:07:52;22.03;;;13.87;;
21901;SDS011;11115;46.038;14.612;2024-02-28T12:10:27;22.87;;;13.67;;
21901;SDS011;11115;46.038;14.612;2024-02-28T12:13:05;15.80;;;13.63;;
21901;SDS011;11115;46.038;14.612;2024-02-28T12:15:41;21.37;;;13.43;;
21901;SDS011;11115;46.038;14.612;2024-02-28T12:18:16;16.40;;;12.63;;
21901;SDS011;11115;46.038;14.612;2024-02-28T12:20:51;15.07;;;11.97;;
21901;SDS011;11115;46.038;14.612;2024-02-28T12:23:27;12.77;;;10.67;;
21901;SDS011;11115;46.038;14.612;2024-02-28T12:25:58;15.30;;;11.25;;
21901;SDS011;11115;46.038;14.612;2024-02-28T12:28:34;12.90;;;7.93;;
21901;SDS011;11115;46.038;14.612;2024-02-28T12:31:06;11.10;;;8.33;;
21901;SDS011;11115;46.038;14.612;2024-02-28T12:33:53;9.97;;;7.03;;
21901;SDS011;11115;46.038;14.612;2024-02-28T12:36:27;13.27;;;8.50;;
21901;SDS011;11115;46.038;14.612;2024-02-28T12:38:57;15.67;;;9.50;;
21901;SDS011;11115;46.038;14.612;2024-02-28T12:41:45;14.50;;;9.27;;
21901;SDS011;11115;46.038;14.612;2024-02-28T12:44:17;18.80;;;11.67;;
21901;SDS011;11115;46.038;14.612;2024-02-28T12:46:48;24.63;;;11.20;;
21901;SDS011;11115;46.038;14.612;2024-02-28T12:49:21;17.50;;;10.40;;
21901;SDS011;11115;46.038;14.612;2024-02-28T12:51:58;15.63;;;10.50;;
21901;SDS011;11115;46.038;14.612;2024-02-28T12:54:41;21.77;;;10.30;;
21901;SDS011;11115;46.038;14.612;2024-02-28T12:57:11;16.17;;;9.27;;
21901;SDS011;11115;46.038;14.612;2024-02-28T12:59:44;18.40;;;10.97;;
21901;SDS011;11115;46.038;14.612;2024-02-28T13:02:19;16.17;;;10.00;;
21901;SDS011;11115;46.038;14.612;2024-02-28T13:04:57;15.17;;;9.50;;
21901;SDS011;11115;46.038;14.612;2024-02-28T13:07:36;16.50;;;10.97;;
21901;SDS011;11115;46.038;14.612;2024-02-28T13:10:14;17.90;;;10.73;;
21901;SDS011;11115;46.038;14.612;2024-02-28T13:15:24;17.43;;;9.47;;
21901;SDS011;11115;46.038;14.612;2024-02-28T13:18:00;12.80;;;9.07;;
21901;SDS011;11115;46.038;14.612;2024-02-28T13:20:37;17.40;;;9.00;;
21901;SDS011;11115;46.038;14.612;2024-02-28T13:23:14;14.20;;;8.90;;
21901;SDS011;11115;46.038;14.612;2024-02-28T13:25:49;16.13;;;9.57;;
21901;SDS011;11115;46.038;14.612;2024-02-28T13:28:32;13.07;;;9.93;;
21901;SDS011;11115;46.038;14.612;2024-02-28T13:31:13;14.70;;;10.17;;
21901;SDS011;11115;46.038;14.612;2024-02-28T13:33:46;17.13;;;10.80;;
21901;SDS011;11115;46.038;14.612;2024-02-28T13:36:20;18.33;;;10.30;;
21901;SDS011;11115;46.038;14.612;2024-02-28T13:38:54;16.83;;;10.77;;
21901;SDS011;11115;46.038;14.612;2024-02-28T13:41:30;18.17;;;9.50;;
21901;SDS011;11115;46.038;14.612;2024-02-28T13:44:03;13.30;;;9.33;;
21901;SDS011;11115;46.038;14.612;2024-02-28T13:46:34;14.25;;;9.73;;
21901;SDS011;11115;46.038;14.612;2024-02-28T13:49:13;15.37;;;10.60;;
21901;SDS011;11115;46.038;14.612;2024-02-28T13:51:48;12.47;;;9.00;;
21901;SDS011;11115;46.038;14.612;2024-02-28T13:54:22;17.83;;;10.50;;
21901;SDS011;11115;46.038;14.612;2024-02-28T13:56:59;14.80;;;10.33;;
21901;SDS011;11115;46.038;14.612;2024-02-28T13:59:44;19.37;;;10.33;;
21901;SDS011;11115;46.038;14.612;2024-02-28T14:02:17;19.17;;;11.43;;
21901;SDS011;11115;46.038;14.612;2024-02-28T14:04:50;17.53;;;10.80;;
21901;SDS011;11115;46.038;14.612;2024-02-28T14:07:37;15.10;;;10.43;;
21901;SDS011;11115;46.038;14.612;2024-02-28T14:10:14;17.43;;;11.13;;
21901;SDS011;11115;46.038;14.612;2024-02-28T14:12:48;17.50;;;10.77;;
21901;SDS011;11115;46.038;14.612;2024-02-28T14:15:22;14.93;;;11.70;;
21901;SDS011;11115;46.038;14.612;2024-02-28T14:18:03;17.67;;;12.13;;
21901;SDS011;11115;46.038;14.612;2024-02-28T14:20:42;19.27;;;12.47;;
21901;SDS011;11115;46.038;14.612;2024-02-28T14:23:18;20.90;;;11.30;;
21901;SDS011;11115;46.038;14.612;2024-02-28T14:26:05;17.00;;;11.50;;
21901;SDS011;11115;46.038;14.612;2024-02-28T14:28:57;18.17;;;11.37;;
21901;SDS011;11115;46.038;14.612;2024-02-28T14:31:43;21.93;;;13.87;;
21901;SDS011;11115;46.038;14.612;2024-02-28T14:34:16;18.40;;;12.67;;
21901;SDS011;11115;46.038;14.612;2024-02-28T14:36:48;20.40;;;12.40;;
21901;SDS011;11115;46.038;14.612;2024-02-28T14:39:22;15.97;;;11.40;;
21901;SDS011;11115;46.038;14.612;2024-02-28T14:42:09;15.43;;;10.83;;
21901;SDS011;11115;46.038;14.612;2024-02-28T14:44:44;17.90;;;11.67;;
21901;SDS011;11115;46.038;14.612;2024-02-28T14:47:26;17.20;;;12.10;;
21901;SDS011;11115;46.038;14.612;2024-02-28T14:50:03;26.10;;;13.70;;
21901;SDS011;11115;46.038;14.612;2024-02-28T14:52:39;22.20;;;13.73;;
21901;SDS011;11115;46.038;14.612;2024-02-28T14:55:11;16.88;;;13.05;;
21901;SDS011;11115;46.038;14.612;2024-02-28T14:57:47;19.00;;;11.50;;
21901;SDS011;11115;46.038;14.612;2024-02-28T15:00:22;20.73;;;13.27;;
21901;SDS011;11115;46.038;14.612;2024-02-28T15:03:00;14.07;;;10.90;;
21901;SDS011;11115;46.038;14.612;2024-02-28T15:05:39;20.27;;;11.63;;
21901;SDS011;11115;46.038;14.612;2024-02-28T15:08:12;14.80;;;11.32;;
21901;SDS011;11115;46.038;14.612;2024-02-28T15:10:41;19.67;;;13.57;;
21901;SDS011;11115;46.038;14.612;2024-02-28T15:13:16;32.03;;;15.70;;
21901;SDS011;11115;46.038;14.612;2024-02-28T15:15:52;34.17;;;15.70;;
21901;SDS011;11115;46.038;14.612;2024-02-28T15:18:39;28.83;;;16.53;;